sensor_id;sensor_type;location;lat;lon;timestamp;temperature;humidity
14521;DHT22;7347;50.844;4.490;2023-09-19T07:10:42;16.90;99.90
14521;DHT22;7347;50.844;4.490;2023-09-19T07:13:14;16.90;99.90
14521;DHT22;7347;50.844;4.490;2023-09-19T07:15:42;16.90;99.90
14521;DHT22;7347;50.844;4.490;2023-09-19T07:18:12;17.00;99.90
14521;DHT22;7347;50.844;4.490;2023-09-19T07:20:40;17.20;99.90
14521;DHT22;7347;50.844;4.490;2023-09-19T07:23:14;17.40;99.90
14521;DHT22;7347;50.844;4.490;2023-09-19T07:25:45;17.70;99.90
14521;DHT22;7347;50.844;4.490;2023-09-19T07:28:12;17.90;99.90
14521;DHT22;7347;50.844;4.490;2023-09-19T07:30:39;18.20;99.90
14521;DHT22;7347;50.844;4.490;2023-09-19T07:33:07;18.50;99.90
14521;DHT22;7347;50.844;4.490;2023-09-19T07:35:36;19.00;99.90
14521;DHT22;7347;50.844;4.490;2023-09-19T07:38:05;19.40;99.90
14521;DHT22;7347;50.844;4.490;2023-09-19T07:40:32;19.70;99.90
14521;DHT22;7347;50.844;4.490;2023-09-19T07:43:00;19.60;99.90
14521;DHT22;7347;50.844;4.490;2023-09-19T07:45:27;19.70;99.90
14521;DHT22;7347;50.844;4.490;2023-09-19T07:47:55;19.80;99.90
14521;DHT22;7347;50.844;4.490;2023-09-19T07:50:23;19.90;99.90
14521;DHT22;7347;50.844;4.490;2023-09-19T07:52:52;19.70;99.90
14521;DHT22;7347;50.844;4.490;2023-09-19T07:55:20;19.60;99.90
14521;DHT22;7347;50.844;4.490;2023-09-19T07:57:49;19.50;99.90
14521;DHT22;7347;50.844;4.490;2023-09-19T08:00:18;19.50;99.90
14521;DHT22;7347;50.844;4.490;2023-09-19T08:02:45;19.80;99.90
14521;DHT22;7347;50.844;4.490;2023-09-19T08:05:13;19.80;99.90
14521;DHT22;7347;50.844;4.490;2023-09-19T08:07:43;20.00;99.90
14521;DHT22;7347;50.844;4.490;2023-09-19T08:10:11;19.80;99.90
14521;DHT22;7347;50.844;4.490;2023-09-19T08:12:39;19.80;99.90
14521;DHT22;7347;50.844;4.490;2023-09-19T08:15:12;19.80;99.90
14521;DHT22;7347;50.844;4.490;2023-09-19T08:17:40;19.80;99.90
14521;DHT22;7347;50.844;4.490;2023-09-19T08:20:08;19.80;99.90
14521;DHT22;7347;50.844;4.490;2023-09-19T08:22:43;20.10;99.90
14521;DHT22;7347;50.844;4.490;2023-09-19T08:25:11;20.10;99.90
14521;DHT22;7347;50.844;4.490;2023-09-19T08:27:38;20.10;99.90
14521;DHT22;7347;50.844;4.490;2023-09-19T08:30:06;20.10;99.90
14521;DHT22;7347;50.844;4.490;2023-09-19T08:32:33;20.10;99.90
14521;DHT22;7347;50.844;4.490;2023-09-19T08:35:01;19.80;99.90
14521;DHT22;7347;50.844;4.490;2023-09-19T08:37:30;19.90;99.90
14521;DHT22;7347;50.844;4.490;2023-09-19T08:39:57;20.10;99.90
14521;DHT22;7347;50.844;4.490;2023-09-19T08:42:24;20.10;99.90
14521;DHT22;7347;50.844;4.490;2023-09-19T08:44:51;20.10;99.90
14521;DHT22;7347;50.844;4.490;2023-09-19T08:47:25;20.00;99.90
14521;DHT22;7347;50.844;4.490;2023-09-19T08:50:01;20.30;99.90
14521;DHT22;7347;50.844;4.490;2023-09-19T08:52:42;20.30;99.90
14521;DHT22;7347;50.844;4.490;2023-09-19T08:55:12;20.20;99.90
14521;DHT22;7347;50.844;4.490;2023-09-19T08:57:46;20.20;99.90
14521;DHT22;7347;50.844;4.490;2023-09-19T09:00:16;20.60;99.90
14521;DHT22;7347;50.844;4.490;2023-09-19T09:02:46;20.70;99.90
14521;DHT22;7347;50.844;4.490;2023-09-19T09:05:16;20.60;99.90
14521;DHT22;7347;50.844;4.490;2023-09-19T09:07:49;20.50;99.90
14521;DHT22;7347;50.844;4.490;2023-09-19T09:10:17;20.70;99.90
14521;DHT22;7347;50.844;4.490;2023-09-19T09:12:48;20.60;99.90
14521;DHT22;7347;50.844;4.490;2023-09-19T09:15:16;20.60;99.90
14521;DHT22;7347;50.844;4.490;2023-09-19T09:17:47;20.60;99.90
14521;DHT22;7347;50.844;4.490;2023-09-19T09:20:17;20.60;99.90
14521;DHT22;7347;50.844;4.490;2023-09-19T09:22:53;20.50;99.90
14521;DHT22;7347;50.844;4.490;2023-09-19T09:25:21;20.60;99.90
14521;DHT22;7347;50.844;4.490;2023-09-19T09:27:58;20.60;99.90
14521;DHT22;7347;50.844;4.490;2023-09-19T09:30:33;20.50;99.90
14521;DHT22;7347;50.844;4.490;2023-09-19T09:33:10;20.60;99.90
14521;DHT22;7347;50.844;4.490;2023-09-19T09:35:47;20.60;99.90
14521;DHT22;7347;50.844;4.490;2023-09-19T09:38:17;20.70;99.90
14521;DHT22;7347;50.844;4.490;2023-09-19T09:40:48;20.70;99.90
14521;DHT22;7347;50.844;4.490;2023-09-19T09:43:30;20.70;99.90
14521;DHT22;7347;50.844;4.490;2023-09-19T09:46:11;20.50;99.90
14521;DHT22;7347;50.844;4.490;2023-09-19T09:48:58;20.50;99.90
14521;DHT22;7347;50.844;4.490;2023-09-19T09:51:45;20.40;99.90
14521;DHT22;7347;50.844;4.490;2023-09-19T09:54:23;20.10;99.90
14521;DHT22;7347;50.844;4.490;2023-09-19T09:56:54;20.10;99.90
14521;DHT22;7347;50.844;4.490;2023-09-19T09:59:49;20.20;99.90
14521;DHT22;7347;50.844;4.490;2023-09-19T10:02:17;20.10;99.90
14521;DHT22;7347;50.844;4.490;2023-09-19T10:04:54;19.90;99.90
14521;DHT22;7347;50.844;4.490;2023-09-19T10:07:36;19.80;99.90
14521;DHT22;7347;50.844;4.490;2023-09-19T10:10:07;19.70;99.90
14521;DHT22;7347;50.844;4.490;2023-09-19T10:12:46;19.70;99.90
14521;DHT22;7347;50.844;4.490;2023-09-19T10:15:15;19.80;99.90
14521;DHT22;7347;50.844;4.490;2023-09-19T10:17:43;19.90;99.90
14521;DHT22;7347;50.844;4.490;2023-09-19T10:20:15;20.10;99.90
14521;DHT22;7347;50.844;4.490;2023-09-19T10:23:03;20.00;99.90
14521;DHT22;7347;50.844;4.490;2023-09-19T10:25:36;20.00;99.90
14521;DHT22;7347;50.844;4.490;2023-09-19T10:28:05;20.00;99.90
14521;DHT22;7347;50.844;4.490;2023-09-19T10:30:37;20.10;99.90
14521;DHT22;7347;50.844;4.490;2023-09-19T10:33:08;20.10;99.90
14521;DHT22;7347;50.844;4.490;2023-09-19T10:35:38;20.20;99.90
14521;DHT22;7347;50.844;4.490;2023-09-19T10:38:09;20.10;99.90
14521;DHT22;7347;50.844;4.490;2023-09-19T10:40:37;20.10;99.90
14521;DHT22;7347;50.844;4.490;2023-09-19T10:43:11;20.10;99.90
14521;DHT22;7347;50.844;4.490;2023-09-19T10:45:39;20.20;99.90
14521;DHT22;7347;50.844;4.490;2023-09-19T10:48:07;20.40;99.90
14521;DHT22;7347;50.844;4.490;2023-09-19T10:50:46;20.50;99.90
14521;DHT22;7347;50.844;4.490;2023-09-19T10:53:17;20.50;99.90
14521;DHT22;7347;50.844;4.490;2023-09-19T10:55:50;20.30;99.90
14521;DHT22;7347;50.844;4.490;2023-09-19T10:58:29;20.30;99.90
14521;DHT22;7347;50.844;4.490;2023-09-19T11:01:00;20.40;99.90
14521;DHT22;7347;50.844;4.490;2023-09-19T11:03:33;20.50;99.90
14521;DHT22;7347;50.844;4.490;2023-09-19T11:06:08;20.60;99.90
14521;DHT22;7347;50.844;4.490;2023-09-19T11:09:06;20.60;99.90
14521;DHT22;7347;50.844;4.490;2023-09-19T11:11:49;20.60;99.90
14521;DHT22;7347;50.844;4.490;2023-09-19T11:14:42;20.40;99.90
14521;DHT22;7347;50.844;4.490;2023-09-19T11:17:37;20.30;99.90
14521;DHT22;7347;50.844;4.490;2023-09-19T11:20:25;20.40;99.90
14521;DHT22;7347;50.844;4.490;2023-09-19T11:23:18;20.50;99.90
14521;DHT22;7347;50.844;4.490;2023-09-19T11:25:50;20.60;99.90
14521;DHT22;7347;50.844;4.490;2023-09-19T11:28:34;20.50;99.90
14521;DHT22;7347;50.844;4.490;2023-09-19T11:34:38;20.80;99.90
14521;DHT22;7347;50.844;4.490;2023-09-19T11:40:45;20.60;99.90
14521;DHT22;7347;50.844;4.490;2023-09-19T11:43:34;20.70;99.90
14521;DHT22;7347;50.844;4.490;2023-09-19T11:46:07;20.90;99.90
14521;DHT22;7347;50.844;4.490;2023-09-19T11:48:41;20.70;99.90
14521;DHT22;7347;50.844;4.490;2023-09-19T11:51:14;20.70;99.90
14521;DHT22;7347;50.844;4.490;2023-09-19T11:53:46;20.60;99.90
14521;DHT22;7347;50.844;4.490;2023-09-19T11:56:16;20.40;99.90
14521;DHT22;7347;50.844;4.490;2023-09-19T11:58:45;20.40;99.90
14521;DHT22;7347;50.844;4.490;2023-09-19T12:01:15;20.40;99.90
14521;DHT22;7347;50.844;4.490;2023-09-19T12:03:53;20.70;99.90
14521;DHT22;7347;50.844;4.490;2023-09-19T12:06:23;20.90;99.90
14521;DHT22;7347;50.844;4.490;2023-09-19T12:08:50;21.20;99.90
14521;DHT22;7347;50.844;4.490;2023-09-19T12:11:21;21.00;99.90
14521;DHT22;7347;50.844;4.490;2023-09-19T12:13:50;20.70;99.90
14521;DHT22;7347;50.844;4.490;2023-09-19T12:16:20;20.80;99.90
14521;DHT22;7347;50.844;4.490;2023-09-19T12:18:49;21.00;99.90
14521;DHT22;7347;50.844;4.490;2023-09-19T12:21:27;21.20;99.90
14521;DHT22;7347;50.844;4.490;2023-09-19T12:23:58;21.20;99.90
14521;DHT22;7347;50.844;4.490;2023-09-19T12:26:26;20.90;99.90
14521;DHT22;7347;50.844;4.490;2023-09-19T12:28:55;20.90;99.90
14521;DHT22;7347;50.844;4.490;2023-09-19T12:31:23;20.70;99.90
14521;DHT22;7347;50.844;4.490;2023-09-19T12:33:53;20.80;99.90
14521;DHT22;7347;50.844;4.490;2023-09-19T12:36:21;20.80;99.90
14521;DHT22;7347;50.844;4.490;2023-09-19T12:38:55;20.90;99.90
14521;DHT22;7347;50.844;4.490;2023-09-19T12:41:24;21.00;99.90
14521;DHT22;7347;50.844;4.490;2023-09-19T12:43:51;21.10;99.90
14521;DHT22;7347;50.844;4.490;2023-09-19T12:46:21;21.00;99.90
14521;DHT22;7347;50.844;4.490;2023-09-19T12:49:18;20.90;99.90
14521;DHT22;7347;50.844;4.490;2023-09-19T12:51:46;21.10;99.90
14521;DHT22;7347;50.844;4.490;2023-09-19T12:54:13;21.20;99.90
14521;DHT22;7347;50.844;4.490;2023-09-19T12:56:43;21.30;99.90
14521;DHT22;7347;50.844;4.490;2023-09-19T12:59:15;21.30;99.90
14521;DHT22;7347;50.844;4.490;2023-09-19T13:01:43;21.20;99.90
14521;DHT22;7347;50.844;4.490;2023-09-19T13:04:16;20.90;99.90
14521;DHT22;7347;50.844;4.490;2023-09-19T13:06:46;20.90;99.90
14521;DHT22;7347;50.844;4.490;2023-09-19T13:09:15;20.70;99.90
14521;DHT22;7347;50.844;4.490;2023-09-19T13:11:42;20.80;99.90
14521;DHT22;7347;50.844;4.490;2023-09-19T13:14:17;20.90;99.90
14521;DHT22;7347;50.844;4.490;2023-09-19T13:16:57;21.10;99.90
14521;DHT22;7347;50.844;4.490;2023-09-19T13:19:38;21.00;99.90
14521;DHT22;7347;50.844;4.490;2023-09-19T13:22:40;20.90;99.90
14521;DHT22;7347;50.844;4.490;2023-09-19T13:25:09;20.90;99.90
14521;DHT22;7347;50.844;4.490;2023-09-19T13:27:40;20.80;99.90
14521;DHT22;7347;50.844;4.490;2023-09-19T13:30:08;20.80;99.90
14521;DHT22;7347;50.844;4.490;2023-09-19T13:32:35;20.90;99.90
14521;DHT22;7347;50.844;4.490;2023-09-19T13:35:05;20.90;99.90
14521;DHT22;7347;50.844;4.490;2023-09-19T13:37:34;20.90;99.90
14521;DHT22;7347;50.844;4.490;2023-09-19T13:40:03;21.10;99.90
14521;DHT22;7347;50.844;4.490;2023-09-19T13:42:30;21.20;99.90
14521;DHT22;7347;50.844;4.490;2023-09-19T13:44:57;21.30;99.90
14521;DHT22;7347;50.844;4.490;2023-09-19T13:47:24;21.30;99.90
14521;DHT22;7347;50.844;4.490;2023-09-19T13:49:52;21.40;99.90
14521;DHT22;7347;50.844;4.490;2023-09-19T13:52:19;21.30;99.90
14521;DHT22;7347;50.844;4.490;2023-09-19T13:54:47;21.20;99.90
14521;DHT22;7347;50.844;4.490;2023-09-19T13:57:15;21.20;99.90
14521;DHT22;7347;50.844;4.490;2023-09-19T13:59:43;21.10;99.90
14521;DHT22;7347;50.844;4.490;2023-09-19T14:02:10;21.10;99.90
14521;DHT22;7347;50.844;4.490;2023-09-19T14:04:37;21.20;99.90
14521;DHT22;7347;50.844;4.490;2023-09-19T14:07:04;21.30;99.90
14521;DHT22;7347;50.844;4.490;2023-09-19T14:09:32;21.20;99.90
14521;DHT22;7347;50.844;4.490;2023-09-19T14:12:00;21.00;99.90
14521;DHT22;7347;50.844;4.490;2023-09-19T14:14:28;21.00;99.90
14521;DHT22;7347;50.844;4.490;2023-09-19T14:16:55;20.90;99.90
14521;DHT22;7347;50.844;4.490;2023-09-19T14:19:22;20.90;99.90
14521;DHT22;7347;50.844;4.490;2023-09-19T14:21:51;20.90;99.90
14521;DHT22;7347;50.844;4.490;2023-09-19T14:24:21;20.80;99.90
14521;DHT22;7347;50.844;4.490;2023-09-19T14:26:49;20.80;99.90
14521;DHT22;7347;50.844;4.490;2023-09-19T14:29:16;20.90;99.90
14521;DHT22;7347;50.844;4.490;2023-09-19T14:31:44;21.00;99.90
14521;DHT22;7347;50.844;4.490;2023-09-19T14:34:11;20.90;99.90
14521;DHT22;7347;50.844;4.490;2023-09-19T14:36:39;21.10;99.90
14521;DHT22;7347;50.844;4.490;2023-09-19T14:39:06;21.10;99.90
14521;DHT22;7347;50.844;4.490;2023-09-19T14:41:33;21.20;99.90
14521;DHT22;7347;50.844;4.490;2023-09-19T14:44:02;21.40;99.90
14521;DHT22;7347;50.844;4.490;2023-09-19T14:46:30;21.70;99.90
14521;DHT22;7347;50.844;4.490;2023-09-19T14:48:58;21.60;99.90
14521;DHT22;7347;50.844;4.490;2023-09-19T14:51:29;21.50;99.90
14521;DHT22;7347;50.844;4.490;2023-09-19T14:53:56;21.20;99.90
14521;DHT22;7347;50.844;4.490;2023-09-19T14:56:23;21.00;99.90
14521;DHT22;7347;50.844;4.490;2023-09-19T14:58:51;20.90;99.90
14521;DHT22;7347;50.844;4.490;2023-09-19T15:01:18;20.80;99.90
14521;DHT22;7347;50.844;4.490;2023-09-19T15:03:45;20.80;99.90
14521;DHT22;7347;50.844;4.490;2023-09-19T15:06:15;20.90;99.90
14521;DHT22;7347;50.844;4.490;2023-09-19T15:08:44;21.00;99.90
14521;DHT22;7347;50.844;4.490;2023-09-19T15:11:13;21.00;99.90
14521;DHT22;7347;50.844;4.490;2023-09-19T15:13:42;20.90;99.90
14521;DHT22;7347;50.844;4.490;2023-09-19T15:16:10;21.00;99.90
14521;DHT22;7347;50.844;4.490;2023-09-19T15:18:39;21.00;99.90
14521;DHT22;7347;50.844;4.490;2023-09-19T15:21:08;21.10;99.90
14521;DHT22;7347;50.844;4.490;2023-09-19T15:23:38;21.10;99.90
14521;DHT22;7347;50.844;4.490;2023-09-19T15:26:06;21.00;99.90
14521;DHT22;7347;50.844;4.490;2023-09-19T15:28:34;20.70;99.90
14521;DHT22;7347;50.844;4.490;2023-09-19T15:31:02;20.30;99.90
14521;DHT22;7347;50.844;4.490;2023-09-19T15:33:30;20.20;99.90
14521;DHT22;7347;50.844;4.490;2023-09-19T15:36:01;20.20;99.90
14521;DHT22;7347;50.844;4.490;2023-09-19T15:38:29;20.20;99.90
14521;DHT22;7347;50.844;4.490;2023-09-19T15:40:58;20.40;99.90
14521;DHT22;7347;50.844;4.490;2023-09-19T15:43:25;20.40;99.90
14521;DHT22;7347;50.844;4.490;2023-09-19T15:45:53;20.40;99.90
14521;DHT22;7347;50.844;4.490;2023-09-19T15:48:20;20.30;99.90
14521;DHT22;7347;50.844;4.490;2023-09-19T15:50:48;20.10;99.90
14521;DHT22;7347;50.844;4.490;2023-09-19T15:53:14;20.10;99.90
14521;DHT22;7347;50.844;4.490;2023-09-19T15:55:42;20.20;99.90
14521;DHT22;7347;50.844;4.490;2023-09-19T15:58:12;20.20;99.90
14521;DHT22;7347;50.844;4.490;2023-09-19T16:00:40;20.30;99.90
14521;DHT22;7347;50.844;4.490;2023-09-19T16:03:07;20.30;99.90
14521;DHT22;7347;50.844;4.490;2023-09-19T16:05:38;20.30;99.90
14521;DHT22;7347;50.844;4.490;2023-09-19T16:08:05;20.10;99.90
14521;DHT22;7347;50.844;4.490;2023-09-19T16:10:35;20.10;99.90
14521;DHT22;7347;50.844;4.490;2023-09-19T16:13:03;20.10;99.90
14521;DHT22;7347;50.844;4.490;2023-09-19T16:15:32;20.00;99.90
14521;DHT22;7347;50.844;4.490;2023-09-19T16:17:59;19.90;99.90
14521;DHT22;7347;50.844;4.490;2023-09-19T16:20:28;19.90;99.90
14521;DHT22;7347;50.844;4.490;2023-09-19T16:22:55;19.90;99.90
14521;DHT22;7347;50.844;4.490;2023-09-19T16:25:22;19.90;99.90
14521;DHT22;7347;50.844;4.490;2023-09-19T16:27:49;19.80;99.90
14521;DHT22;7347;50.844;4.490;2023-09-19T16:30:17;19.80;99.90
14521;DHT22;7347;50.844;4.490;2023-09-19T16:32:46;19.80;99.90
14521;DHT22;7347;50.844;4.490;2023-09-19T16:35:13;19.80;99.90
14521;DHT22;7347;50.844;4.490;2023-09-19T16:37:41;19.90;99.90
14521;DHT22;7347;50.844;4.490;2023-09-19T16:40:08;19.90;99.90
14521;DHT22;7347;50.844;4.490;2023-09-19T16:42:35;19.90;99.90
14521;DHT22;7347;50.844;4.490;2023-09-19T16:45:03;19.90;99.90
14521;DHT22;7347;50.844;4.490;2023-09-19T16:47:30;19.80;99.90
14521;DHT22;7347;50.844;4.490;2023-09-19T16:49:58;19.70;99.90
14521;DHT22;7347;50.844;4.490;2023-09-19T16:52:25;19.60;99.90
14521;DHT22;7347;50.844;4.490;2023-09-19T16:54:52;19.50;99.90
14521;DHT22;7347;50.844;4.490;2023-09-19T16:57:19;19.40;99.90
14521;DHT22;7347;50.844;4.490;2023-09-19T16:59:47;19.40;99.90
14521;DHT22;7347;50.844;4.490;2023-09-19T17:02:15;19.40;99.90
14521;DHT22;7347;50.844;4.490;2023-09-19T17:04:42;19.50;99.90
14521;DHT22;7347;50.844;4.490;2023-09-19T17:07:11;19.50;99.90
14521;DHT22;7347;50.844;4.490;2023-09-19T17:09:38;19.50;99.90
14521;DHT22;7347;50.844;4.490;2023-09-19T17:12:06;19.50;99.90
14521;DHT22;7347;50.844;4.490;2023-09-19T17:14:34;19.60;99.90
14521;DHT22;7347;50.844;4.490;2023-09-19T17:17:02;19.50;99.90
14521;DHT22;7347;50.844;4.490;2023-09-19T17:19:29;19.50;99.90
14521;DHT22;7347;50.844;4.490;2023-09-19T17:21:56;19.40;99.90
14521;DHT22;7347;50.844;4.490;2023-09-19T17:24:25;19.30;99.90
14521;DHT22;7347;50.844;4.490;2023-09-19T17:26:52;19.30;99.90
14521;DHT22;7347;50.844;4.490;2023-09-19T17:29:19;19.40;99.90
14521;DHT22;7347;50.844;4.490;2023-09-19T17:31:46;19.40;99.90
14521;DHT22;7347;50.844;4.490;2023-09-19T17:34:13;19.30;99.90
14521;DHT22;7347;50.844;4.490;2023-09-19T17:36:41;19.20;99.90
14521;DHT22;7347;50.844;4.490;2023-09-19T17:39:08;19.20;99.90
14521;DHT22;7347;50.844;4.490;2023-09-19T17:41:41;19.20;99.90
14521;DHT22;7347;50.844;4.490;2023-09-19T17:44:08;19.20;99.90
14521;DHT22;7347;50.844;4.490;2023-09-19T17:46:37;19.10;99.90
14521;DHT22;7347;50.844;4.490;2023-09-19T17:49:04;19.00;99.90
14521;DHT22;7347;50.844;4.490;2023-09-19T17:51:31;19.00;99.90
14521;DHT22;7347;50.844;4.490;2023-09-19T17:53:58;18.90;99.90
14521;DHT22;7347;50.844;4.490;2023-09-19T17:56:28;18.90;99.90
14521;DHT22;7347;50.844;4.490;2023-09-19T17:58:57;18.80;99.90
14521;DHT22;7347;50.844;4.490;2023-09-19T18:01:24;18.80;99.90
14521;DHT22;7347;50.844;4.490;2023-09-19T18:03:52;18.70;99.90
14521;DHT22;7347;50.844;4.490;2023-09-19T18:06:22;18.70;99.90
14521;DHT22;7347;50.844;4.490;2023-09-19T18:08:49;18.70;99.90
14521;DHT22;7347;50.844;4.490;2023-09-19T18:11:17;18.70;99.90
14521;DHT22;7347;50.844;4.490;2023-09-19T18:13:47;18.80;99.90
14521;DHT22;7347;50.844;4.490;2023-09-19T18:16:18;18.70;99.90
14521;DHT22;7347;50.844;4.490;2023-09-19T18:18:46;18.70;99.90
14521;DHT22;7347;50.844;4.490;2023-09-19T18:21:15;18.70;99.90
14521;DHT22;7347;50.844;4.490;2023-09-19T18:23:45;18.70;99.90
14521;DHT22;7347;50.844;4.490;2023-09-19T18:26:13;18.70;99.90
14521;DHT22;7347;50.844;4.490;2023-09-19T18:28:41;18.70;99.90
14521;DHT22;7347;50.844;4.490;2023-09-19T18:31:09;18.70;99.90
14521;DHT22;7347;50.844;4.490;2023-09-19T18:33:37;18.60;99.90
14521;DHT22;7347;50.844;4.490;2023-09-19T18:36:04;18.60;99.90
14521;DHT22;7347;50.844;4.490;2023-09-19T18:38:33;18.50;99.90
14521;DHT22;7347;50.844;4.490;2023-09-19T18:41:05;18.50;99.90
14521;DHT22;7347;50.844;4.490;2023-09-19T18:43:32;18.50;99.90
14521;DHT22;7347;50.844;4.490;2023-09-19T18:46:00;18.50;99.90
14521;DHT22;7347;50.844;4.490;2023-09-19T18:48:26;18.60;99.90
14521;DHT22;7347;50.844;4.490;2023-09-19T18:50:55;18.50;99.90
14521;DHT22;7347;50.844;4.490;2023-09-19T18:53:22;18.60;99.90
14521;DHT22;7347;50.844;4.490;2023-09-19T18:56:02;18.70;99.90
14521;DHT22;7347;50.844;4.490;2023-09-19T18:58:29;18.70;99.90
14521;DHT22;7347;50.844;4.490;2023-09-19T19:01:00;18.60;99.90
14521;DHT22;7347;50.844;4.490;2023-09-19T19:03:28;18.60;99.90
14521;DHT22;7347;50.844;4.490;2023-09-19T19:05:57;18.60;99.90
14521;DHT22;7347;50.844;4.490;2023-09-19T19:08:24;18.60;99.90
14521;DHT22;7347;50.844;4.490;2023-09-19T19:10:51;18.50;99.90
14521;DHT22;7347;50.844;4.490;2023-09-19T19:13:18;18.50;99.90
14521;DHT22;7347;50.844;4.490;2023-09-19T19:15:45;18.50;99.90
14521;DHT22;7347;50.844;4.490;2023-09-19T19:18:12;18.50;99.90
14521;DHT22;7347;50.844;4.490;2023-09-19T19:20:38;18.50;99.90
14521;DHT22;7347;50.844;4.490;2023-09-19T19:23:07;18.40;99.90
14521;DHT22;7347;50.844;4.490;2023-09-19T19:25:36;18.50;99.90
14521;DHT22;7347;50.844;4.490;2023-09-19T19:28:05;18.50;99.90
14521;DHT22;7347;50.844;4.490;2023-09-19T19:30:34;18.50;99.90
14521;DHT22;7347;50.844;4.490;2023-09-19T19:33:03;18.50;99.90
14521;DHT22;7347;50.844;4.490;2023-09-19T19:35:32;18.50;99.90
14521;DHT22;7347;50.844;4.490;2023-09-19T19:37:58;18.60;99.90
14521;DHT22;7347;50.844;4.490;2023-09-19T19:40:27;18.60;99.90
14521;DHT22;7347;50.844;4.490;2023-09-19T19:42:53;18.70;99.90
14521;DHT22;7347;50.844;4.490;2023-09-19T19:45:21;18.70;99.90
14521;DHT22;7347;50.844;4.490;2023-09-19T19:47:48;18.70;99.90
14521;DHT22;7347;50.844;4.490;2023-09-19T19:50:15;18.70;99.90
14521;DHT22;7347;50.844;4.490;2023-09-19T19:52:43;18.70;99.90
14521;DHT22;7347;50.844;4.490;2023-09-19T19:55:10;18.70;99.90
14521;DHT22;7347;50.844;4.490;2023-09-19T19:57:38;18.80;99.90
14521;DHT22;7347;50.844;4.490;2023-09-19T20:00:07;18.70;99.90
14521;DHT22;7347;50.844;4.490;2023-09-19T20:02:34;18.80;99.90
14521;DHT22;7347;50.844;4.490;2023-09-19T20:05:01;18.80;99.90
14521;DHT22;7347;50.844;4.490;2023-09-19T20:07:28;18.90;99.90
14521;DHT22;7347;50.844;4.490;2023-09-19T20:09:55;18.80;99.90
14521;DHT22;7347;50.844;4.490;2023-09-19T20:12:22;18.80;99.90
14521;DHT22;7347;50.844;4.490;2023-09-19T20:14:51;18.90;99.90
14521;DHT22;7347;50.844;4.490;2023-09-19T20:17:19;18.90;99.90
14521;DHT22;7347;50.844;4.490;2023-09-19T20:19:49;18.90;99.90
14521;DHT22;7347;50.844;4.490;2023-09-19T20:22:18;19.00;99.90
14521;DHT22;7347;50.844;4.490;2023-09-19T20:24:45;19.00;99.90
